sensor_id;sensor_type;location;lat;lon;timestamp;P1;durP1;ratioP1;P2;durP2;ratioP2
74421;SDS011;62856;51.446;8.360;2023-06-19T07:52:17;9.33;;;6.33;;
74421;SDS011;62856;51.446;8.360;2023-06-19T09:42:08;6.15;;;1.80;;
74421;SDS011;62856;51.446;8.360;2023-06-19T09:44:42;6.47;;;2.13;;
74421;SDS011;62856;51.446;8.360;2023-06-19T09:47:29;5.72;;;1.90;;
74421;SDS011;62856;51.446;8.360;2023-06-19T09:49:57;5.78;;;2.22;;
74421;SDS011;62856;51.446;8.360;2023-06-19T09:54:54;5.00;;;1.70;;
74421;SDS011;62856;51.446;8.360;2023-06-19T10:04:11;5.07;;;1.98;;
74421;SDS011;62856;51.446;8.360;2023-06-19T10:06:42;5.93;;;2.22;;
74421;SDS011;62856;51.446;8.360;2023-06-19T10:09:13;5.72;;;2.28;;
74421;SDS011;62856;51.446;8.360;2023-06-19T10:11:44;5.00;;;1.98;;
74421;SDS011;62856;51.446;8.360;2023-06-19T10:14:11;5.65;;;2.25;;
74421;SDS011;62856;51.446;8.360;2023-06-19T10:16:37;5.03;;;2.17;;
74421;SDS011;62856;51.446;8.360;2023-06-19T10:21:28;6.15;;;2.17;;
74421;SDS011;62856;51.446;8.360;2023-06-19T10:47:18;5.30;;;1.92;;
74421;SDS011;62856;51.446;8.360;2023-06-19T10:52:16;4.65;;;1.80;;
74421;SDS011;62856;51.446;8.360;2023-06-19T10:59:24;5.60;;;1.90;;
74421;SDS011;62856;51.446;8.360;2023-06-19T11:09:12;7.35;;;2.10;;
74421;SDS011;62856;51.446;8.360;2023-06-19T11:14:13;5.07;;;1.90;;
74421;SDS011;62856;51.446;8.360;2023-06-19T11:16:42;5.47;;;1.90;;
74421;SDS011;62856;51.446;8.360;2023-06-19T11:30:31;5.95;;;1.90;;
74421;SDS011;62856;51.446;8.360;2023-06-19T11:32:58;4.45;;;1.60;;
74421;SDS011;62856;51.446;8.360;2023-06-19T11:35:32;4.57;;;1.70;;
74421;SDS011;62856;51.446;8.360;2023-06-19T11:38:01;6.07;;;1.75;;
74421;SDS011;62856;51.446;8.360;2023-06-19T11:40:26;4.85;;;1.55;;
74421;SDS011;62856;51.446;8.360;2023-06-19T11:42:54;6.53;;;2.00;;
74421;SDS011;62856;51.446;8.360;2023-06-19T11:45:20;4.28;;;1.40;;
74421;SDS011;62856;51.446;8.360;2023-06-19T11:47:46;4.82;;;1.73;;
74421;SDS011;62856;51.446;8.360;2023-06-19T11:50:12;5.18;;;1.65;;
74421;SDS011;62856;51.446;8.360;2023-06-19T11:52:38;5.15;;;1.60;;
74421;SDS011;62856;51.446;8.360;2023-06-19T11:55:04;4.35;;;1.73;;
74421;SDS011;62856;51.446;8.360;2023-06-19T11:57:30;3.90;;;1.70;;
74421;SDS011;62856;51.446;8.360;2023-06-19T11:59:57;3.78;;;1.73;;
74421;SDS011;62856;51.446;8.360;2023-06-19T12:02:22;7.33;;;1.87;;
74421;SDS011;62856;51.446;8.360;2023-06-19T12:04:48;6.47;;;1.80;;
74421;SDS011;62856;51.446;8.360;2023-06-19T12:07:13;5.57;;;2.10;;
74421;SDS011;62856;51.446;8.360;2023-06-19T12:09:40;4.95;;;1.75;;
74421;SDS011;62856;51.446;8.360;2023-06-19T12:14:55;3.95;;;1.55;;
74421;SDS011;62856;51.446;8.360;2023-06-19T12:27:45;5.03;;;1.60;;
74421;SDS011;62856;51.446;8.360;2023-06-19T12:30:10;4.75;;;1.70;;
74421;SDS011;62856;51.446;8.360;2023-06-19T12:44:15;4.10;;;1.50;;
74421;SDS011;62856;51.446;8.360;2023-06-19T12:56:00;5.07;;;1.70;;
74421;SDS011;62856;51.446;8.360;2023-06-19T12:58:25;4.22;;;1.52;;
74421;SDS011;62856;51.446;8.360;2023-06-19T13:00:52;5.25;;;1.60;;
74421;SDS011;62856;51.446;8.360;2023-06-19T13:03:18;5.68;;;1.90;;
74421;SDS011;62856;51.446;8.360;2023-06-19T13:05:44;4.90;;;1.85;;
74421;SDS011;62856;51.446;8.360;2023-06-19T13:14:49;5.35;;;1.67;;
74421;SDS011;62856;51.446;8.360;2023-06-19T13:17:15;4.65;;;1.80;;
74421;SDS011;62856;51.446;8.360;2023-06-19T13:24:17;6.05;;;1.88;;
74421;SDS011;62856;51.446;8.360;2023-06-19T13:26:43;5.05;;;1.85;;
74421;SDS011;62856;51.446;8.360;2023-06-19T13:50:41;5.82;;;1.73;;
74421;SDS011;62856;51.446;8.360;2023-06-19T13:55:23;4.32;;;1.70;;
74421;SDS011;62856;51.446;8.360;2023-06-19T15:06:10;6.15;;;2.72;;
74421;SDS011;62856;51.446;8.360;2023-06-19T15:08:35;7.15;;;2.50;;
74421;SDS011;62856;51.446;8.360;2023-06-19T15:13:56;9.93;;;2.88;;
74421;SDS011;62856;51.446;8.360;2023-06-19T15:16:21;6.85;;;3.10;;
74421;SDS011;62856;51.446;8.360;2023-06-19T15:18:47;7.63;;;3.13;;
74421;SDS011;62856;51.446;8.360;2023-06-19T15:21:13;6.95;;;3.03;;
74421;SDS011;62856;51.446;8.360;2023-06-19T15:26:48;6.95;;;3.53;;
74421;SDS011;62856;51.446;8.360;2023-06-19T15:29:14;6.78;;;3.95;;
74421;SDS011;62856;51.446;8.360;2023-06-19T15:31:39;7.30;;;4.05;;
74421;SDS011;62856;51.446;8.360;2023-06-19T15:34:05;7.38;;;4.07;;
74421;SDS011;62856;51.446;8.360;2023-06-19T15:36:30;7.63;;;3.85;;
74421;SDS011;62856;51.446;8.360;2023-06-19T15:38:55;7.67;;;4.43;;
74421;SDS011;62856;51.446;8.360;2023-06-19T15:41:20;7.78;;;4.20;;
74421;SDS011;62856;51.446;8.360;2023-06-19T15:43:46;7.30;;;4.20;;
74421;SDS011;62856;51.446;8.360;2023-06-19T15:46:31;7.68;;;4.25;;
74421;SDS011;62856;51.446;8.360;2023-06-19T15:48:57;7.00;;;4.50;;
74421;SDS011;62856;51.446;8.360;2023-06-19T15:51:23;11.48;;;5.05;;
74421;SDS011;62856;51.446;8.360;2023-06-19T15:53:48;7.47;;;4.07;;
74421;SDS011;62856;51.446;8.360;2023-06-19T15:56:13;7.07;;;4.60;;
74421;SDS011;62856;51.446;8.360;2023-06-19T15:58:38;7.00;;;5.07;;
74421;SDS011;62856;51.446;8.360;2023-06-19T16:01:04;13.05;;;4.95;;
74421;SDS011;62856;51.446;8.360;2023-06-19T16:03:29;8.30;;;5.03;;
74421;SDS011;62856;51.446;8.360;2023-06-19T16:05:56;8.32;;;4.35;;
74421;SDS011;62856;51.446;8.360;2023-06-19T16:08:22;8.30;;;5.22;;
74421;SDS011;62856;51.446;8.360;2023-06-19T16:10:51;8.43;;;4.72;;
74421;SDS011;62856;51.446;8.360;2023-06-19T16:13:16;11.50;;;5.57;;
74421;SDS011;62856;51.446;8.360;2023-06-19T16:15:41;10.50;;;5.00;;
74421;SDS011;62856;51.446;8.360;2023-06-19T16:18:07;7.27;;;4.80;;
74421;SDS011;62856;51.446;8.360;2023-06-19T16:20:33;7.80;;;5.22;;
74421;SDS011;62856;51.446;8.360;2023-06-19T16:22:58;8.25;;;4.88;;
74421;SDS011;62856;51.446;8.360;2023-06-19T16:25:24;8.30;;;5.17;;
74421;SDS011;62856;51.446;8.360;2023-06-19T16:27:49;9.27;;;4.47;;
74421;SDS011;62856;51.446;8.360;2023-06-19T16:30:15;8.02;;;4.65;;
74421;SDS011;62856;51.446;8.360;2023-06-19T16:32:40;8.43;;;4.70;;
74421;SDS011;62856;51.446;8.360;2023-06-19T16:35:06;7.68;;;4.35;;
74421;SDS011;62856;51.446;8.360;2023-06-19T16:40:17;7.90;;;3.53;;
74421;SDS011;62856;51.446;8.360;2023-06-19T16:42:42;8.05;;;3.55;;
74421;SDS011;62856;51.446;8.360;2023-06-19T16:45:08;8.60;;;3.97;;
74421;SDS011;62856;51.446;8.360;2023-06-19T16:47:34;6.65;;;3.10;;
